createdAt,value
2023-05-18T00:00:13.422Z,22.77
2023-05-18T00:01:13.155Z,22.78
2023-05-18T00:02:13.229Z,22.77
2023-05-18T00:03:13.340Z,22.77
2023-05-18T00:04:13.388Z,22.78
2023-05-18T00:05:13.456Z,22.77
2023-05-18T00:06:13.504Z,22.75
2023-05-18T00:07:13.560Z,22.77
2023-05-18T00:08:13.630Z,22.78
2023-05-18T00:09:13.705Z,22.74
2023-05-18T00:10:13.818Z,22.77
2023-05-18T00:11:13.847Z,22.74
2023-05-18T00:12:13.914Z,22.74
2023-05-18T00:13:13.986Z,22.75
2023-05-18T00:14:14.050Z,22.74
2023-05-18T00:15:14.106Z,22.78
2023-05-18T00:16:14.186Z,22.74
2023-05-18T00:17:14.237Z,22.74
2023-05-18T00:18:14.314Z,22.75
2023-05-18T00:19:14.506Z,22.74
2023-05-18T00:20:14.450Z,22.74
2023-05-18T00:21:15.475Z,22.75
2023-05-18T00:22:14.599Z,22.77
2023-05-18T00:23:14.660Z,22.75
2023-05-18T00:24:14.728Z,22.74
2023-05-18T00:25:14.795Z,22.77
2023-05-18T00:26:14.881Z,22.75
2023-05-18T00:27:14.955Z,22.75
2023-05-18T00:28:15.006Z,22.74
2023-05-18T00:29:15.137Z,22.74
2023-05-18T00:30:15.209Z,22.75
2023-05-18T00:31:15.247Z,22.75
2023-05-18T00:32:15.281Z,22.74
2023-05-18T00:33:15.357Z,22.74
2023-05-18T00:34:15.426Z,22.75
2023-05-18T00:35:15.498Z,22.74
2023-05-18T00:36:15.578Z,22.74
2023-05-18T00:37:15.634Z,22.74
2023-05-18T00:38:15.722Z,22.72
2023-05-18T00:39:15.779Z,22.75
2023-05-18T00:40:15.864Z,22.72
2023-05-18T00:41:15.922Z,22.71
2023-05-18T00:42:16.003Z,22.74
2023-05-18T00:43:16.081Z,22.72
2023-05-18T00:44:16.143Z,22.74
2023-05-18T00:45:16.307Z,22.74
2023-05-18T00:46:16.413Z,22.71
2023-05-18T00:47:16.368Z,22.72
2023-05-18T00:48:16.531Z,22.71
2023-05-18T00:49:16.604Z,22.71
2023-05-18T00:50:16.678Z,22.72
2023-05-18T00:51:16.719Z,22.68
2023-05-18T00:52:16.731Z,22.71
2023-05-18T00:53:16.790Z,22.74
2023-05-18T00:54:16.891Z,22.71
2023-05-18T00:55:16.936Z,22.71
2023-05-18T00:56:17.018Z,22.74
2023-05-18T00:57:17.065Z,22.72
2023-05-18T00:58:17.137Z,22.71
2023-05-18T00:59:17.202Z,22.71
2023-05-18T01:00:17.297Z,22.72
2023-05-18T01:01:17.377Z,22.71
2023-05-18T01:02:17.423Z,22.71
2023-05-18T01:03:17.506Z,22.71
2023-05-18T01:04:17.547Z,22.71
2023-05-18T01:05:17.623Z,22.71
2023-05-18T01:06:17.698Z,22.71
2023-05-18T01:07:17.774Z,22.72
2023-05-18T01:08:17.857Z,22.72
2023-05-18T01:09:17.955Z,22.70
2023-05-18T01:10:17.997Z,22.68
2023-05-18T01:11:18.199Z,22.70
2023-05-18T01:12:18.157Z,22.70
2023-05-18T01:13:18.292Z,22.71
2023-05-18T01:14:18.290Z,22.70
2023-05-18T01:15:18.384Z,22.70
2023-05-18T01:16:18.459Z,22.70
2023-05-18T01:17:18.615Z,22.70
2023-05-18T01:18:18.596Z,22.70
2023-05-18T01:19:19.042Z,22.70
2023-05-18T01:20:18.754Z,22.68
2023-05-18T01:21:18.791Z,22.68
2023-05-18T01:22:18.864Z,22.68
2023-05-18T01:23:18.926Z,22.67
2023-05-18T01:24:19.008Z,22.70
2023-05-18T01:25:19.059Z,22.66
2023-05-18T01:26:19.138Z,22.68
2023-05-18T01:27:20.037Z,22.66
2023-05-18T01:28:19.324Z,22.68
2023-05-18T01:29:19.340Z,22.67
2023-05-18T01:30:19.959Z,22.67
2023-05-18T01:31:19.549Z,22.67
2023-05-18T01:32:19.552Z,22.68
2023-05-18T01:33:19.630Z,22.68
2023-05-18T01:34:19.691Z,22.67
2023-05-18T01:35:19.765Z,22.70
2023-05-18T01:36:19.833Z,22.67
2023-05-18T01:37:19.898Z,22.68
2023-05-18T01:38:19.974Z,22.67
2023-05-18T01:39:20.049Z,22.67
2023-05-18T01:40:20.457Z,22.68
2023-05-18T01:41:20.188Z,22.66
2023-05-18T01:42:20.254Z,22.67
2023-05-18T01:43:20.327Z,22.67
2023-05-18T01:44:20.415Z,22.67
2023-05-18T01:45:20.479Z,22.66
2023-05-18T01:46:20.544Z,22.67
2023-05-18T01:47:20.635Z,22.66
2023-05-18T01:48:20.699Z,22.64
2023-05-18T01:49:20.768Z,22.64
2023-05-18T01:50:20.835Z,22.66
2023-05-18T01:51:20.973Z,22.68
2023-05-18T01:52:20.984Z,22.66
2023-05-18T01:53:21.107Z,22.68
2023-05-18T01:54:21.138Z,22.68
2023-05-18T01:55:21.235Z,22.67
2023-05-18T01:56:21.284Z,22.66
2023-05-18T01:57:21.368Z,22.67
2023-05-18T01:58:21.429Z,22.66
2023-05-18T01:59:21.516Z,22.66
2023-05-18T02:00:21.568Z,22.64
2023-05-18T02:01:21.693Z,22.67
2023-05-18T02:02:21.755Z,22.63
2023-05-18T02:03:21.925Z,22.66
2023-05-18T02:04:21.865Z,22.63
2023-05-18T02:05:21.940Z,22.63
2023-05-18T02:06:22.013Z,22.66
2023-05-18T02:07:22.162Z,22.67
2023-05-18T02:08:22.171Z,22.66
2023-05-18T02:09:22.966Z,22.67
2023-05-18T02:10:22.311Z,22.64
2023-05-18T02:11:22.370Z,22.63
2023-05-18T02:12:22.489Z,22.63
2023-05-18T02:13:22.619Z,22.63
2023-05-18T02:14:22.594Z,22.66
2023-05-18T02:15:22.657Z,22.66
2023-05-18T02:16:22.795Z,22.63
2023-05-18T02:17:22.848Z,22.63
2023-05-18T02:18:22.845Z,22.64
2023-05-18T02:19:23.050Z,22.63
2023-05-18T02:20:22.963Z,22.64
2023-05-18T02:21:23.012Z,22.66
2023-05-18T02:22:23.087Z,22.63
2023-05-18T02:23:23.164Z,22.64
2023-05-18T02:24:23.231Z,22.61
2023-05-18T02:25:23.483Z,22.63
2023-05-18T02:26:23.344Z,22.64
2023-05-18T02:27:23.411Z,22.64
2023-05-18T02:28:23.460Z,22.61
2023-05-18T02:29:23.537Z,22.63
2023-05-18T02:30:23.596Z,22.61
2023-05-18T02:31:23.732Z,22.63
2023-05-18T02:32:23.763Z,22.64
2023-05-18T02:33:23.790Z,22.63
2023-05-18T02:34:23.833Z,22.60
2023-05-18T02:35:23.891Z,22.61
2023-05-18T02:36:23.960Z,22.63
2023-05-18T02:37:24.012Z,22.61
2023-05-18T02:38:24.048Z,22.60
2023-05-18T02:39:24.170Z,22.61
2023-05-18T02:40:24.134Z,22.66
2023-05-18T02:41:24.152Z,22.63
2023-05-18T02:42:24.182Z,22.63
2023-05-18T02:43:24.227Z,22.64
2023-05-18T02:44:24.960Z,22.63
2023-05-18T02:45:24.285Z,22.61
2023-05-18T02:46:24.633Z,22.60
2023-05-18T02:47:24.394Z,22.61
2023-05-18T02:48:24.378Z,22.61
2023-05-18T02:49:24.413Z,22.61
2023-05-18T02:50:24.450Z,22.61
2023-05-18T02:51:24.488Z,22.61
2023-05-18T02:52:24.535Z,22.60
2023-05-18T02:53:24.551Z,22.61
2023-05-18T02:54:24.577Z,22.61
2023-05-18T02:55:24.614Z,22.63
2023-05-18T02:56:24.665Z,22.60
2023-05-18T02:57:24.692Z,22.63
2023-05-18T02:58:24.729Z,22.61
2023-05-18T02:59:24.780Z,22.60
2023-05-18T03:00:24.796Z,22.58
2023-05-18T03:01:24.872Z,22.58
2023-05-18T03:02:24.909Z,22.60
2023-05-18T03:03:24.954Z,22.60
2023-05-18T03:04:24.935Z,22.60
2023-05-18T03:05:25.486Z,22.61
2023-05-18T03:06:24.997Z,22.58
2023-05-18T03:07:25.034Z,22.60
2023-05-18T03:08:25.063Z,22.58
2023-05-18T03:09:25.096Z,22.60
2023-05-18T03:10:25.120Z,22.58
2023-05-18T03:11:25.162Z,22.58
2023-05-18T03:12:25.184Z,22.57
2023-05-18T03:13:25.224Z,22.58
2023-05-18T03:14:25.269Z,22.57
2023-05-18T03:15:25.305Z,22.57
2023-05-18T03:16:25.384Z,22.57
2023-05-18T03:17:25.398Z,22.58
2023-05-18T03:18:25.439Z,22.58
2023-05-18T03:19:25.447Z,22.57
2023-05-18T03:20:25.455Z,22.57
2023-05-18T03:21:25.491Z,22.57
2023-05-18T03:22:25.536Z,22.60
2023-05-18T03:23:25.556Z,22.58
2023-05-18T03:24:25.603Z,22.57
2023-05-18T03:25:26.488Z,22.58
2023-05-18T03:26:25.688Z,22.58
2023-05-18T03:27:25.695Z,22.57
2023-05-18T03:28:25.729Z,22.56
2023-05-18T03:29:25.779Z,22.56
2023-05-18T03:30:25.825Z,22.56
2023-05-18T03:31:25.891Z,22.58
2023-05-18T03:32:25.921Z,22.57
2023-05-18T03:33:25.901Z,22.57
2023-05-18T03:34:26.051Z,22.57
2023-05-18T03:35:25.977Z,22.56
2023-05-18T03:36:26.010Z,22.57
2023-05-18T03:37:26.110Z,22.58
2023-05-18T03:38:26.092Z,22.57
2023-05-18T03:39:26.135Z,22.56
2023-05-18T03:40:26.237Z,22.56
2023-05-18T03:41:26.202Z,22.56
2023-05-18T03:42:26.250Z,22.57
2023-05-18T03:43:26.998Z,22.56
2023-05-18T03:44:26.331Z,22.56
2023-05-18T03:45:26.359Z,22.54
2023-05-18T03:46:26.458Z,22.54
2023-05-18T03:47:26.464Z,22.56
2023-05-18T03:48:26.474Z,22.56
2023-05-18T03:49:27.018Z,22.54
2023-05-18T03:50:26.558Z,22.56
2023-05-18T03:51:26.584Z,22.56
2023-05-18T03:52:26.627Z,22.53
2023-05-18T03:53:26.666Z,22.56
2023-05-18T03:54:26.701Z,22.56
2023-05-18T03:55:26.747Z,22.54
2023-05-18T03:56:26.784Z,22.51
2023-05-18T03:57:26.827Z,22.53
2023-05-18T03:58:26.859Z,22.56
2023-05-18T03:59:26.914Z,22.54
2023-05-18T04:00:26.951Z,22.54
2023-05-18T04:01:26.981Z,22.56
2023-05-18T04:02:27.186Z,22.54
2023-05-18T04:03:27.272Z,22.53
2023-05-18T04:04:27.122Z,22.56
2023-05-18T04:05:27.148Z,22.54
2023-05-18T04:06:27.175Z,22.54
2023-05-18T04:07:27.332Z,22.54
2023-05-18T04:08:27.247Z,22.53
2023-05-18T04:09:27.275Z,22.53
2023-05-18T04:10:27.324Z,22.51
2023-05-18T04:11:27.345Z,22.50
2023-05-18T04:12:27.383Z,22.54
2023-05-18T04:13:27.417Z,22.54
2023-05-18T04:14:27.480Z,22.54
2023-05-18T04:15:27.500Z,22.53
2023-05-18T04:16:28.590Z,22.54
2023-05-18T04:17:27.590Z,22.54
2023-05-18T04:18:27.606Z,22.53
2023-05-18T04:19:27.701Z,22.51
2023-05-18T04:20:27.669Z,22.50
2023-05-18T04:21:27.720Z,22.51
2023-05-18T04:22:28.516Z,22.51
2023-05-18T04:23:27.784Z,22.51
2023-05-18T04:24:27.841Z,22.53
2023-05-18T04:25:28.164Z,22.53
2023-05-18T04:26:27.909Z,22.54
2023-05-18T04:27:27.967Z,22.53
2023-05-18T04:28:27.987Z,22.50
2023-05-18T04:29:28.047Z,22.51
2023-05-18T04:30:28.069Z,22.50
2023-05-18T04:31:28.216Z,22.51
2023-05-18T04:32:28.149Z,22.51
2023-05-18T04:33:28.192Z,22.50
2023-05-18T04:34:28.216Z,22.51
2023-05-18T04:35:28.345Z,22.54
2023-05-18T04:36:28.306Z,22.50
2023-05-18T04:37:28.329Z,22.51
2023-05-18T04:38:28.383Z,22.50
2023-05-18T04:39:28.410Z,22.50
2023-05-18T04:40:28.454Z,22.50
2023-05-18T04:41:28.496Z,22.50
2023-05-18T04:42:28.525Z,22.50
2023-05-18T04:43:28.572Z,22.51
2023-05-18T04:44:28.609Z,22.50
2023-05-18T04:45:28.781Z,22.49
2023-05-18T04:46:28.703Z,22.50
2023-05-18T04:47:28.794Z,22.50
2023-05-18T04:48:28.753Z,22.53
2023-05-18T04:49:28.799Z,22.49
2023-05-18T04:50:28.852Z,22.47
2023-05-18T04:51:28.880Z,22.50
2023-05-18T04:52:28.917Z,22.50
2023-05-18T04:53:28.953Z,22.49
2023-05-18T04:54:29.018Z,22.50
2023-05-18T04:55:29.700Z,22.50
2023-05-18T04:56:29.072Z,22.50
2023-05-18T04:57:29.119Z,22.51
2023-05-18T04:58:30.557Z,22.51
2023-05-18T04:59:29.214Z,22.50
2023-05-18T05:00:29.325Z,22.51
2023-05-18T05:01:29.320Z,22.51
2023-05-18T05:02:29.389Z,22.49
2023-05-18T05:03:29.467Z,22.49
2023-05-18T05:04:29.417Z,22.50
2023-05-18T05:05:29.520Z,22.49
2023-05-18T05:06:29.518Z,22.50
2023-05-18T05:07:29.548Z,22.46
2023-05-18T05:08:29.577Z,22.49
2023-05-18T05:09:29.639Z,22.49
2023-05-18T05:10:29.659Z,22.47
2023-05-18T05:11:29.719Z,22.49
2023-05-18T05:12:29.749Z,22.49
2023-05-18T05:13:29.785Z,22.50
2023-05-18T05:14:29.827Z,22.47
2023-05-18T05:15:30.043Z,22.47
2023-05-18T05:16:30.013Z,22.47
2023-05-18T05:17:30.008Z,22.49
2023-05-18T05:18:30.003Z,22.47
2023-05-18T05:19:30.146Z,22.47
2023-05-18T05:20:30.084Z,22.47
2023-05-18T05:21:30.127Z,22.47
2023-05-18T05:22:30.195Z,22.49
2023-05-18T05:23:30.227Z,22.47
2023-05-18T05:24:30.261Z,22.47
2023-05-18T05:25:30.620Z,22.47
2023-05-18T05:26:30.344Z,22.46
2023-05-18T05:27:30.396Z,22.46
2023-05-18T05:28:30.436Z,22.47
2023-05-18T05:29:30.480Z,22.49
2023-05-18T05:30:30.532Z,22.49
2023-05-18T05:31:30.663Z,22.47
2023-05-18T05:32:30.607Z,22.49
2023-05-18T05:33:30.638Z,22.47
2023-05-18T05:34:30.680Z,22.49
2023-05-18T05:35:33.402Z,22.46
2023-05-18T05:36:30.748Z,22.49
2023-05-18T05:37:30.730Z,22.49
2023-05-18T05:38:30.724Z,22.46
2023-05-18T05:39:30.739Z,22.46
2023-05-18T05:40:30.743Z,22.47
2023-05-18T05:41:32.447Z,22.47
2023-05-18T05:42:30.754Z,22.46
2023-05-18T05:43:30.767Z,22.46
2023-05-18T05:44:30.772Z,22.47
2023-05-18T05:45:30.951Z,22.47
2023-05-18T05:46:30.822Z,22.46
2023-05-18T05:47:30.802Z,22.46
2023-05-18T05:48:30.783Z,22.47
2023-05-18T05:49:30.781Z,22.47
2023-05-18T05:50:30.783Z,22.46
2023-05-18T05:51:30.786Z,22.47
2023-05-18T05:52:30.794Z,22.46
2023-05-18T05:53:30.799Z,22.47
2023-05-18T05:54:30.812Z,22.47
2023-05-18T05:55:30.995Z,22.46
2023-05-18T05:56:30.814Z,22.43
2023-05-18T05:57:30.823Z,22.46
2023-05-18T05:58:30.847Z,22.47
2023-05-18T05:59:30.891Z,22.46
2023-05-18T06:00:31.003Z,22.46
2023-05-18T06:01:30.982Z,22.46
2023-05-18T06:02:31.238Z,22.46
2023-05-18T06:03:32.444Z,22.47
2023-05-18T06:04:31.355Z,22.46
2023-05-18T06:05:31.875Z,22.46
2023-05-18T06:06:31.385Z,22.46
2023-05-18T06:07:31.417Z,22.44
2023-05-18T06:08:31.457Z,22.44
2023-05-18T06:09:31.512Z,22.44
2023-05-18T06:10:31.555Z,22.47
2023-05-18T06:11:31.611Z,22.46
2023-05-18T06:12:31.721Z,22.43
2023-05-18T06:13:31.686Z,22.43
2023-05-18T06:14:31.750Z,22.43
2023-05-18T06:15:32.153Z,22.44
2023-05-18T06:16:31.922Z,22.43
2023-05-18T06:17:31.898Z,22.43
2023-05-18T06:18:31.911Z,22.46
2023-05-18T06:19:31.956Z,22.46
2023-05-18T06:20:32.003Z,22.44
2023-05-18T06:21:32.059Z,22.43
2023-05-18T06:22:32.096Z,22.44
2023-05-18T06:23:32.152Z,22.46
2023-05-18T06:24:32.190Z,22.46
2023-05-18T06:25:32.388Z,22.44
2023-05-18T06:26:32.294Z,22.43
2023-05-18T06:27:32.338Z,22.44
2023-05-18T06:28:32.445Z,22.47
2023-05-18T06:29:32.432Z,22.44
2023-05-18T06:30:32.472Z,22.43
2023-05-18T06:31:32.547Z,22.46
2023-05-18T06:32:33.565Z,22.44
2023-05-18T06:33:32.627Z,22.43
2023-05-18T06:34:32.661Z,22.46
2023-05-18T06:35:32.810Z,22.47
2023-05-18T06:36:32.756Z,22.46
2023-05-18T06:37:32.820Z,22.46
2023-05-18T06:38:32.863Z,22.43
2023-05-18T06:39:32.912Z,22.44
2023-05-18T06:40:32.968Z,22.44
2023-05-18T06:41:33.022Z,22.43
2023-05-18T06:42:33.048Z,22.44
2023-05-18T06:43:33.100Z,22.43
2023-05-18T06:44:33.193Z,22.43
2023-05-18T06:45:36.124Z,22.44
2023-05-18T06:46:33.301Z,22.44
2023-05-18T06:47:33.220Z,22.46
2023-05-18T06:48:33.205Z,22.44
2023-05-18T06:49:33.205Z,22.44
2023-05-18T06:50:33.217Z,22.43
2023-05-18T06:51:33.276Z,22.44
2023-05-18T06:52:33.223Z,22.42
2023-05-18T06:53:33.250Z,22.44
2023-05-18T06:54:33.235Z,22.44
2023-05-18T06:55:33.483Z,22.43
2023-05-18T06:56:33.238Z,22.44
2023-05-18T06:57:33.233Z,22.46
2023-05-18T06:58:33.238Z,22.44
2023-05-18T06:59:33.247Z,22.42
2023-05-18T07:00:33.257Z,22.43
2023-05-18T07:01:33.275Z,22.46
2023-05-18T07:02:33.271Z,22.44
2023-05-18T07:03:33.392Z,22.44
2023-05-18T07:04:33.240Z,22.43
2023-05-18T07:05:33.446Z,22.44
2023-05-18T07:06:33.265Z,22.43
2023-05-18T07:07:33.333Z,22.44
2023-05-18T07:08:33.347Z,22.47
2023-05-18T07:09:33.272Z,22.46
2023-05-18T07:10:33.295Z,22.43
2023-05-18T07:11:33.274Z,22.43
2023-05-18T07:12:33.270Z,22.44
2023-05-18T07:13:33.277Z,22.43
2023-05-18T07:14:33.264Z,22.43
2023-05-18T07:15:33.590Z,22.44
2023-05-18T07:16:33.333Z,22.46
2023-05-18T07:17:33.347Z,22.44
2023-05-18T07:18:33.272Z,22.46
2023-05-18T07:19:33.327Z,22.46
2023-05-18T07:20:33.258Z,22.44
2023-05-18T07:21:33.268Z,22.43
2023-05-18T07:22:33.340Z,22.43
2023-05-18T07:23:34.328Z,22.46
2023-05-18T07:24:33.399Z,22.44
2023-05-18T07:25:33.602Z,22.44
2023-05-18T07:26:33.565Z,22.44
2023-05-18T07:27:33.545Z,22.44
2023-05-18T07:28:33.587Z,22.43
2023-05-18T07:29:33.636Z,22.42
2023-05-18T07:30:33.666Z,22.46
2023-05-18T07:31:33.782Z,22.46
2023-05-18T07:32:33.804Z,22.46
2023-05-18T07:33:34.576Z,22.46
2023-05-18T07:34:33.939Z,22.44
2023-05-18T07:35:34.035Z,22.44
2023-05-18T07:36:33.944Z,22.46
2023-05-18T07:37:33.983Z,22.47
2023-05-18T07:38:34.028Z,22.44
2023-05-18T07:39:34.078Z,22.44
2023-05-18T07:40:34.125Z,22.44
2023-05-18T07:41:34.169Z,22.44
2023-05-18T07:42:34.217Z,22.43
2023-05-18T07:43:34.259Z,22.46
2023-05-18T07:44:34.296Z,22.44
2023-05-18T07:45:34.522Z,22.43
2023-05-18T07:46:34.443Z,22.46
2023-05-18T07:47:34.496Z,22.44
2023-05-18T07:48:34.498Z,22.44
2023-05-18T07:49:34.533Z,22.43
2023-05-18T07:50:34.780Z,22.42
2023-05-18T07:51:34.617Z,22.42
2023-05-18T07:52:34.666Z,22.46
2023-05-18T07:53:34.729Z,22.46
2023-05-18T07:54:34.772Z,22.44
2023-05-18T07:55:34.840Z,22.46
2023-05-18T07:56:34.863Z,22.46
2023-05-18T07:57:34.911Z,22.46
2023-05-18T07:58:34.972Z,22.44
2023-05-18T07:59:35.544Z,22.43
2023-05-18T08:00:35.062Z,22.46
2023-05-18T08:01:35.164Z,22.43
2023-05-18T08:02:35.261Z,22.46
2023-05-18T08:03:35.241Z,22.43
2023-05-18T08:04:35.252Z,22.43
2023-05-18T08:05:35.313Z,22.44
2023-05-18T08:06:35.360Z,22.42
2023-05-18T08:07:35.504Z,22.46
2023-05-18T08:08:35.494Z,22.44
2023-05-18T08:09:35.498Z,22.44
2023-05-18T08:10:35.544Z,22.43
2023-05-18T08:11:35.591Z,22.43
2023-05-18T08:12:35.667Z,22.44
2023-05-18T08:13:35.695Z,22.44
2023-05-18T08:14:36.593Z,22.42
2023-05-18T08:15:35.771Z,22.44
2023-05-18T08:16:35.833Z,22.43
2023-05-18T08:17:35.888Z,22.42
2023-05-18T08:18:35.940Z,22.43
2023-05-18T08:19:35.937Z,22.43
2023-05-18T08:20:35.988Z,22.46
2023-05-18T08:21:36.032Z,22.43
2023-05-18T08:22:36.084Z,22.43
2023-05-18T08:23:36.125Z,22.43
2023-05-18T08:24:36.162Z,22.44
2023-05-18T08:25:36.595Z,22.44
2023-05-18T08:26:36.259Z,22.43
2023-05-18T08:27:37.109Z,22.46
2023-05-18T08:28:36.358Z,22.43
2023-05-18T08:29:36.393Z,22.43
2023-05-18T08:30:36.446Z,22.47
2023-05-18T08:31:36.545Z,22.44
2023-05-18T08:32:36.529Z,22.43
2023-05-18T08:33:36.649Z,22.46
2023-05-18T08:34:36.625Z,22.46
2023-05-18T08:35:36.672Z,22.43
2023-05-18T08:36:36.711Z,22.44
2023-05-18T08:37:36.764Z,22.46
2023-05-18T08:38:36.808Z,22.44
2023-05-18T08:39:36.860Z,22.44
2023-05-18T08:40:36.914Z,22.44
2023-05-18T08:41:36.944Z,22.44
2023-05-18T08:42:49.115Z,22.44
2023-05-18T08:43:38.003Z,22.44
2023-05-18T08:44:36.994Z,22.44
2023-05-18T08:45:37.023Z,22.43
2023-05-18T08:46:37.030Z,22.44
2023-05-18T08:47:37.078Z,22.43
2023-05-18T08:48:37.081Z,22.47
2023-05-18T08:49:37.042Z,22.44
2023-05-18T08:50:37.052Z,22.44
2023-05-18T08:51:37.062Z,22.44
2023-05-18T08:52:37.173Z,22.44
2023-05-18T08:53:37.076Z,22.44
2023-05-18T08:54:37.079Z,22.44
2023-05-18T08:55:37.380Z,22.47
2023-05-18T08:56:37.104Z,22.44
2023-05-18T08:57:37.115Z,22.44
2023-05-18T08:58:37.160Z,22.46
2023-05-18T08:59:37.206Z,22.46
2023-05-18T09:00:37.267Z,22.44
2023-05-18T09:01:37.390Z,22.46
2023-05-18T09:02:37.381Z,22.43
2023-05-18T09:03:37.401Z,22.49
2023-05-18T09:04:37.504Z,22.44
2023-05-18T09:05:37.528Z,22.46
2023-05-18T09:06:37.554Z,22.44
2023-05-18T09:07:37.645Z,22.46
2023-05-18T09:08:37.652Z,22.43
2023-05-18T09:09:37.713Z,22.46
2023-05-18T09:10:37.755Z,22.44
2023-05-18T09:11:37.809Z,22.44
2023-05-18T09:12:37.846Z,22.44
2023-05-18T09:13:37.904Z,22.43
2023-05-18T09:14:37.936Z,22.46
2023-05-18T09:15:38.120Z,22.44
2023-05-18T09:16:38.059Z,22.43
2023-05-18T09:17:38.119Z,22.44
2023-05-18T09:18:38.226Z,22.46
2023-05-18T09:19:38.165Z,22.44
2023-05-18T09:20:38.215Z,22.46
2023-05-18T09:21:38.280Z,22.44
2023-05-18T09:22:38.297Z,22.46
2023-05-18T09:23:38.342Z,22.46
2023-05-18T09:24:38.407Z,22.46
2023-05-18T09:25:38.432Z,22.46
2023-05-18T09:26:39.113Z,22.46
2023-05-18T09:27:38.605Z,22.46
2023-05-18T09:28:38.565Z,22.46
2023-05-18T09:29:38.606Z,22.49
2023-05-18T09:30:38.658Z,22.46
2023-05-18T09:31:38.758Z,22.44
2023-05-18T09:32:38.861Z,22.46
2023-05-18T09:33:38.881Z,22.43
2023-05-18T09:34:38.832Z,22.47
2023-05-18T09:35:39.253Z,22.46
2023-05-18T09:36:38.941Z,22.47
2023-05-18T09:37:39.035Z,22.46
2023-05-18T09:38:38.997Z,22.43
2023-05-18T09:39:39.058Z,22.47
2023-05-18T09:40:39.110Z,22.49
2023-05-18T09:41:39.145Z,22.46
2023-05-18T09:42:39.198Z,22.47
2023-05-18T09:43:39.242Z,22.47
2023-05-18T09:44:39.261Z,22.46
2023-05-18T09:45:39.629Z,22.46
2023-05-18T09:46:39.388Z,22.47
2023-05-18T09:47:39.416Z,22.44
2023-05-18T09:48:39.440Z,22.47
2023-05-18T09:49:39.487Z,22.49
2023-05-18T09:50:39.632Z,22.46
2023-05-18T09:51:39.559Z,22.46
2023-05-18T09:52:39.615Z,22.49
2023-05-18T09:53:39.660Z,22.47
2023-05-18T09:54:39.722Z,22.47
2023-05-18T09:55:39.767Z,22.49
2023-05-18T09:56:39.797Z,22.46
2023-05-18T09:57:39.822Z,22.49
2023-05-18T09:58:39.870Z,22.46
2023-05-18T09:59:39.989Z,22.47
2023-05-18T10:00:39.974Z,22.49
2023-05-18T10:01:40.014Z,22.49
2023-05-18T10:02:40.123Z,22.49
2023-05-18T10:03:40.109Z,22.47
2023-05-18T10:04:40.251Z,22.47
2023-05-18T10:05:40.203Z,22.49
2023-05-18T10:06:40.254Z,22.47
2023-05-18T10:07:40.294Z,22.50
2023-05-18T10:08:40.413Z,22.47
2023-05-18T10:09:40.383Z,22.47
2023-05-18T10:10:40.447Z,22.47
2023-05-18T10:11:40.484Z,22.49
2023-05-18T10:12:40.529Z,22.46
2023-05-18T10:13:40.570Z,22.47
2023-05-18T10:14:40.616Z,22.46
2023-05-18T10:15:40.664Z,22.47
2023-05-18T10:16:40.737Z,22.47
2023-05-18T10:17:40.896Z,22.49
2023-05-18T10:18:40.813Z,22.49
2023-05-18T10:19:40.849Z,22.49
2023-05-18T10:20:40.891Z,22.49
2023-05-18T10:21:40.934Z,22.47
2023-05-18T10:22:40.975Z,22.46
2023-05-18T10:23:41.017Z,22.44
2023-05-18T10:24:41.057Z,22.50
2023-05-18T10:25:41.103Z,22.50
2023-05-18T10:26:41.156Z,22.47
2023-05-18T10:27:41.208Z,22.49
2023-05-18T10:28:41.237Z,22.46
2023-05-18T10:29:41.284Z,22.49
2023-05-18T10:30:41.362Z,22.47
2023-05-18T10:31:41.502Z,22.47
2023-05-18T10:32:41.471Z,22.50
2023-05-18T10:33:41.624Z,22.49
2023-05-18T10:34:41.514Z,22.49
2023-05-18T10:35:41.580Z,22.49
2023-05-18T10:36:41.608Z,22.49
2023-05-18T10:37:41.652Z,22.47
2023-05-18T10:38:41.696Z,22.49
2023-05-18T10:39:41.742Z,22.50
2023-05-18T10:40:41.801Z,22.49
2023-05-18T10:41:41.836Z,22.47
2023-05-18T10:42:41.896Z,22.50
2023-05-18T10:43:41.967Z,22.49
2023-05-18T10:44:41.973Z,22.50
2023-05-18T10:45:42.013Z,22.49
2023-05-18T10:46:42.167Z,22.50
2023-05-18T10:47:42.380Z,22.51
2023-05-18T10:48:42.148Z,22.50
2023-05-18T10:49:42.185Z,22.50
2023-05-18T10:50:42.231Z,22.49
2023-05-18T10:51:42.270Z,22.51
2023-05-18T10:52:42.331Z,22.50
2023-05-18T10:53:42.364Z,22.49
2023-05-18T10:54:42.406Z,22.47
2023-05-18T10:55:42.459Z,22.51
2023-05-18T10:56:42.496Z,22.50
2023-05-18T10:57:42.544Z,22.53
2023-05-18T10:58:42.590Z,22.50
2023-05-18T10:59:43.015Z,22.51
2023-05-18T11:00:42.673Z,22.50
2023-05-18T11:01:42.741Z,22.51
2023-05-18T11:02:43.210Z,22.51
2023-05-18T11:03:42.802Z,22.53
2023-05-18T11:04:42.919Z,22.49
2023-05-18T11:05:42.871Z,22.50
2023-05-18T11:06:42.912Z,22.51
2023-05-18T11:07:42.957Z,22.53
2023-05-18T11:08:43.009Z,22.50
2023-05-18T11:09:43.070Z,22.51
2023-05-18T11:10:43.090Z,22.51
2023-05-18T11:11:43.142Z,22.51
2023-05-18T11:12:43.177Z,22.53
2023-05-18T11:13:43.219Z,22.51
2023-05-18T11:14:43.267Z,22.51
2023-05-18T11:15:43.329Z,22.53
2023-05-18T11:16:43.407Z,22.50
2023-05-18T11:17:43.420Z,22.53
2023-05-18T11:18:43.487Z,22.53
2023-05-18T11:19:43.486Z,22.53
2023-05-18T11:20:43.542Z,22.51
2023-05-18T11:21:43.594Z,22.51
2023-05-18T11:22:43.663Z,22.50
2023-05-18T11:23:43.672Z,22.51
2023-05-18T11:24:43.731Z,22.51
2023-05-18T11:25:43.762Z,22.54
2023-05-18T11:26:43.807Z,22.51
2023-05-18T11:27:43.870Z,22.51
2023-05-18T11:28:43.926Z,22.53
2023-05-18T11:29:43.951Z,22.53
2023-05-18T11:30:44.009Z,22.51
2023-05-18T11:31:44.714Z,22.53
2023-05-18T11:32:44.166Z,22.53
2023-05-18T11:33:44.154Z,22.53
2023-05-18T11:34:44.164Z,22.54
2023-05-18T11:35:44.207Z,22.53
2023-05-18T11:36:44.258Z,22.57
2023-05-18T11:37:44.317Z,22.54
2023-05-18T11:38:44.345Z,22.54
2023-05-18T11:39:55.441Z,22.56
2023-05-18T11:40:45.399Z,22.54
2023-05-18T11:41:44.429Z,22.57
2023-05-18T11:42:44.406Z,22.57
2023-05-18T11:43:44.399Z,22.57
2023-05-18T11:44:44.400Z,22.54
2023-05-18T11:45:44.467Z,22.54
2023-05-18T11:46:44.398Z,22.56
2023-05-18T11:47:44.458Z,22.57
2023-05-18T11:48:44.517Z,22.56
2023-05-18T11:49:44.391Z,22.56
2023-05-18T11:50:44.386Z,22.57
2023-05-18T11:51:45.161Z,22.57
2023-05-18T11:52:44.442Z,22.56
2023-05-18T11:53:44.484Z,22.54
2023-05-18T11:54:44.532Z,22.54
2023-05-18T11:55:44.606Z,22.56
2023-05-18T11:56:44.610Z,22.56
2023-05-18T11:57:44.655Z,22.57
2023-05-18T11:58:44.699Z,22.57
2023-05-18T11:59:44.745Z,22.57
2023-05-18T12:00:44.788Z,22.57
2023-05-18T12:01:44.837Z,22.56
2023-05-18T12:02:45.238Z,22.60
2023-05-18T12:03:47.799Z,22.57
2023-05-18T12:04:44.989Z,22.60
2023-05-18T12:05:44.901Z,22.58
2023-05-18T12:06:44.905Z,22.58
2023-05-18T12:07:45.184Z,22.60
2023-05-18T12:08:44.911Z,22.58
2023-05-18T12:09:45.684Z,22.61
2023-05-18T12:10:44.904Z,22.61
2023-05-18T12:11:44.893Z,22.60
2023-05-18T12:12:44.900Z,22.63
2023-05-18T12:13:44.894Z,22.58
2023-05-18T12:14:44.896Z,22.61
2023-05-18T12:15:44.910Z,22.61
2023-05-18T12:16:44.952Z,22.60
2023-05-18T12:17:44.957Z,22.60
2023-05-18T12:18:44.954Z,22.63
2023-05-18T12:19:44.923Z,22.61
2023-05-18T12:20:44.912Z,22.63
2023-05-18T12:21:44.924Z,22.63
2023-05-18T12:22:44.921Z,22.63
2023-05-18T12:23:44.914Z,22.63
2023-05-18T12:24:44.925Z,22.63
2023-05-18T12:25:44.918Z,22.64
2023-05-18T12:26:44.901Z,22.63
2023-05-18T12:27:44.932Z,22.63
2023-05-18T12:28:44.906Z,22.64
2023-05-18T12:29:44.922Z,22.64
2023-05-18T12:30:44.956Z,22.63
2023-05-18T12:31:44.917Z,22.66
2023-05-18T12:32:45.003Z,22.63
2023-05-18T12:33:44.913Z,22.63
2023-05-18T12:34:44.916Z,22.64
2023-05-18T12:35:45.189Z,22.64
2023-05-18T12:36:44.914Z,22.63
2023-05-18T12:37:45.802Z,22.63
2023-05-18T12:38:44.909Z,22.63
2023-05-18T12:39:45.723Z,22.66
2023-05-18T12:40:45.162Z,22.67
2023-05-18T12:41:44.913Z,22.66
2023-05-18T12:42:44.922Z,22.64
2023-05-18T12:43:44.922Z,22.64
2023-05-18T12:44:44.942Z,22.64
2023-05-18T12:45:45.118Z,22.64
2023-05-18T12:46:44.997Z,22.64
2023-05-18T12:47:44.972Z,22.66
2023-05-18T12:48:44.956Z,22.64
2023-05-18T12:49:45.004Z,22.66
2023-05-18T12:50:46.195Z,22.66
2023-05-18T12:51:45.121Z,22.66
2023-05-18T12:52:45.190Z,22.66